createdAt,value
2023-09-29T00:02:41.472Z,58.76
2023-09-29T00:05:44.838Z,59.09
2023-09-29T00:08:47.652Z,59.18
2023-09-29T00:11:52.834Z,59.68
2023-09-29T00:14:55.815Z,59.96
2023-09-29T00:17:58.891Z,59.96
2023-09-29T00:21:01.368Z,60.18
2023-09-29T00:24:05.516Z,60.32
2023-09-29T00:27:07.894Z,60.41
2023-09-29T00:30:14.018Z,60.50
2023-09-29T00:33:16.932Z,60.47
2023-09-29T00:36:22.554Z,60.52
2023-09-29T00:39:28.462Z,60.43
2023-09-29T00:42:31.583Z,60.36
2023-09-29T00:45:34.453Z,60.30
2023-09-29T00:48:39.459Z,60.40
2023-09-29T00:51:42.361Z,60.59
2023-09-29T00:54:47.457Z,60.72
2023-09-29T00:57:53.051Z,60.76
2023-09-29T01:00:57.318Z,61.02
2023-09-29T01:03:59.975Z,61.01
2023-09-29T01:07:08.532Z,61.00
2023-09-29T01:10:17.272Z,60.98
2023-09-29T01:13:20.244Z,61.12
2023-09-29T01:16:22.572Z,61.45
2023-09-29T01:19:26.015Z,61.58
2023-09-29T01:22:31.388Z,61.58
2023-09-29T01:25:34.911Z,61.47
2023-09-29T01:28:37.253Z,61.53
2023-09-29T01:31:40.542Z,61.46
2023-09-29T01:34:43.041Z,61.37
2023-09-29T01:37:48.873Z,61.30
2023-09-29T01:40:53.021Z,61.37
2023-09-29T01:43:56.502Z,61.35
2023-09-29T01:46:58.968Z,61.50
2023-09-29T01:50:02.002Z,61.54
2023-09-29T01:53:04.392Z,61.58
2023-09-29T01:56:08.205Z,61.58
2023-09-29T01:59:11.238Z,61.61
2023-09-29T02:02:14.315Z,61.68
2023-09-29T02:05:17.995Z,61.66
2023-09-29T02:08:21.087Z,61.64
2023-09-29T02:11:25.641Z,61.70
2023-09-29T02:14:30.264Z,61.69
2023-09-29T02:17:37.818Z,61.92
2023-09-29T02:20:48.500Z,62.10
2023-09-29T02:23:51.458Z,62.16
2023-09-29T02:26:54.560Z,62.18
2023-09-29T02:29:57.460Z,62.25
2023-09-29T02:33:00.307Z,62.19
2023-09-29T02:36:03.083Z,62.25
2023-09-29T02:39:05.833Z,62.24
2023-09-29T02:42:09.085Z,62.47
2023-09-29T02:45:11.889Z,62.43
2023-09-29T02:48:15.098Z,62.52
2023-09-29T02:51:18.692Z,62.61
2023-09-29T02:54:21.788Z,63.03
2023-09-29T02:57:24.945Z,63.45
2023-09-29T03:00:28.345Z,63.59
2023-09-29T03:03:31.346Z,63.60
2023-09-29T03:06:34.159Z,63.72
2023-09-29T03:09:37.315Z,63.94
2023-09-29T03:12:40.068Z,64.07
2023-09-29T03:15:43.193Z,64.11
2023-09-29T03:18:47.678Z,64.25
2023-09-29T03:21:50.482Z,64.32
2023-09-29T03:24:53.254Z,64.41
2023-09-29T03:27:57.110Z,64.62
2023-09-29T03:31:01.408Z,64.79
2023-09-29T03:34:05.205Z,64.86
2023-09-29T03:37:08.106Z,64.87
2023-09-29T03:40:11.735Z,65.02
2023-09-29T03:43:14.681Z,65.06
2023-09-29T03:46:20.919Z,64.97
2023-09-29T03:49:24.639Z,65.01
2023-09-29T03:52:27.252Z,65.02
2023-09-29T03:55:29.975Z,65.18
2023-09-29T03:58:32.521Z,65.22
2023-09-29T04:01:35.560Z,65.22
2023-09-29T04:04:38.458Z,65.33
2023-09-29T04:07:42.176Z,65.54
2023-09-29T04:10:45.194Z,65.67
2023-09-29T04:13:47.563Z,65.68
2023-09-29T04:16:51.541Z,65.67
2023-09-29T04:19:56.576Z,65.74
2023-09-29T04:23:01.280Z,65.70
2023-09-29T04:26:04.323Z,65.72
2023-09-29T04:29:07.286Z,65.64
2023-09-29T04:32:09.786Z,65.69
2023-09-29T04:35:12.763Z,65.96
2023-09-29T04:38:15.121Z,66.00
2023-09-29T04:41:18.536Z,65.92
2023-09-29T04:44:20.994Z,65.79
2023-09-29T04:47:24.085Z,65.46
2023-09-29T04:50:27.088Z,65.30
2023-09-29T04:53:30.054Z,65.05
2023-09-29T04:56:32.772Z,64.90
2023-09-29T04:59:36.240Z,64.85
2023-09-29T05:02:38.911Z,64.60
2023-09-29T05:05:42.079Z,64.39
2023-09-29T05:08:45.815Z,64.35
2023-09-29T05:11:48.920Z,64.41
2023-09-29T05:14:51.846Z,64.42
2023-09-29T05:17:55.011Z,64.57
2023-09-29T05:20:57.693Z,64.45
2023-09-29T05:24:00.683Z,64.46
2023-09-29T05:27:03.242Z,64.38
2023-09-29T05:30:06.709Z,64.21
2023-09-29T05:33:09.455Z,64.07
2023-09-29T05:36:12.545Z,64.15
2023-09-29T05:39:15.956Z,64.02
2023-09-29T05:42:27.994Z,63.98
2023-09-29T05:45:36.176Z,63.88
2023-09-29T05:48:40.237Z,63.67
2023-09-29T05:51:42.876Z,63.41
2023-09-29T05:54:46.296Z,63.15
2023-09-29T05:57:48.826Z,63.13
2023-09-29T06:00:51.803Z,62.86
2023-09-29T06:03:54.689Z,62.75
2023-09-29T06:06:57.438Z,62.58
2023-09-29T06:10:01.465Z,62.32
2023-09-29T06:13:04.935Z,61.66
2023-09-29T06:16:09.413Z,61.34
2023-09-29T06:19:12.207Z,61.18
2023-09-29T06:22:15.012Z,60.48
2023-09-29T06:25:19.828Z,60.44
2023-09-29T06:28:22.715Z,60.29
2023-09-29T06:31:25.341Z,59.93
2023-09-29T06:34:28.034Z,59.34
2023-09-29T06:37:30.729Z,59.52
2023-09-29T06:40:33.931Z,59.34
2023-09-29T06:43:36.874Z,58.84
2023-09-29T06:46:39.603Z,58.71
2023-09-29T06:49:42.323Z,58.04
2023-09-29T06:52:44.967Z,57.81
2023-09-29T06:55:47.580Z,57.15
2023-09-29T06:58:50.481Z,56.65
2023-09-29T07:01:53.860Z,56.05
2023-09-29T07:04:56.755Z,55.61
2023-09-29T07:07:59.678Z,54.77
2023-09-29T07:11:04.534Z,53.64
2023-09-29T07:14:07.567Z,53.19
2023-09-29T07:17:10.334Z,52.82
2023-09-29T07:20:14.127Z,51.96
2023-09-29T07:23:18.234Z,50.62
2023-09-29T07:26:20.844Z,49.56
2023-09-29T07:29:23.522Z,48.26
2023-09-29T07:32:29.077Z,47.34
2023-09-29T07:35:31.742Z,45.94
2023-09-29T07:38:34.565Z,43.87
2023-09-29T07:41:37.382Z,39.18
2023-09-29T07:44:40.729Z,27.91
2023-09-29T07:47:43.490Z,21.08
2023-09-29T07:50:46.747Z,17.46
2023-09-29T07:53:49.561Z,15.12
2023-09-29T07:56:52.317Z,13.39
2023-09-29T07:59:55.002Z,12.30
2023-09-29T08:02:57.968Z,11.54
2023-09-29T08:06:01.009Z,10.57
2023-09-29T08:09:05.137Z,10.18
2023-09-29T08:12:08.163Z,10.47
2023-09-29T08:15:12.656Z,11.11
2023-09-29T08:18:15.632Z,10.89
2023-09-29T08:21:18.389Z,12.44
2023-09-29T08:24:21.168Z,13.96
2023-09-29T08:27:24.796Z,15.12
2023-09-29T08:30:27.681Z,18.32
2023-09-29T08:33:44.330Z,20.08
2023-09-29T08:36:53.385Z,21.29
2023-09-29T08:39:56.185Z,23.54
2023-09-29T08:43:02.585Z,24.02
2023-09-29T08:46:05.484Z,27.21
2023-09-29T08:49:09.734Z,27.56
2023-09-29T08:52:15.795Z,26.53
2023-09-29T08:55:19.267Z,25.61
2023-09-29T08:58:25.750Z,26.16
2023-09-29T09:01:28.914Z,26.33
2023-09-29T09:04:32.374Z,25.52
2023-09-29T09:07:36.531Z,24.97
2023-09-29T09:10:39.871Z,25.01
2023-09-29T09:13:42.922Z,25.08
2023-09-29T09:16:47.109Z,24.65
2023-09-29T09:19:55.845Z,24.78
2023-09-29T09:22:59.651Z,23.35
2023-09-29T09:26:12.690Z,24.56
2023-09-29T09:29:18.062Z,24.58
2023-09-29T09:32:30.176Z,23.67
2023-09-29T09:35:34.646Z,24.23
2023-09-29T09:38:38.404Z,23.30
2023-09-29T09:41:43.138Z,23.62
2023-09-29T09:44:45.954Z,23.15
2023-09-29T09:47:51.200Z,22.53
2023-09-29T09:50:57.440Z,23.69
2023-09-29T09:54:04.549Z,23.77
2023-09-29T09:57:10.399Z,24.40
2023-09-29T10:00:14.689Z,23.96
2023-09-29T10:03:18.547Z,22.99
2023-09-29T10:06:23.423Z,22.41
2023-09-29T10:09:27.165Z,23.01
2023-09-29T10:12:32.800Z,23.49
2023-09-29T10:15:36.475Z,24.94
2023-09-29T10:18:39.333Z,24.27
2023-09-29T10:21:46.911Z,23.81
2023-09-29T10:25:13.116Z,23.42
2023-09-29T10:28:18.862Z,22.95
2023-09-29T10:31:29.085Z,23.68
2023-09-29T10:34:33.913Z,23.32
2023-09-29T10:37:42.504Z,23.17
2023-09-29T10:40:45.845Z,23.19
2023-09-29T10:43:50.081Z,22.66
2023-09-29T10:46:52.842Z,22.79
2023-09-29T10:49:56.718Z,22.27
2023-09-29T10:52:59.597Z,21.53
2023-09-29T10:56:02.590Z,21.16
2023-09-29T10:59:06.138Z,21.08
2023-09-29T11:02:14.572Z,21.36
2023-09-29T11:05:22.055Z,21.75
2023-09-29T11:08:33.521Z,21.58
2023-09-29T11:11:37.251Z,22.18
2023-09-29T11:14:40.714Z,21.72
2023-09-29T11:17:47.848Z,21.63
2023-09-29T11:20:56.577Z,21.89
2023-09-29T11:24:04.811Z,21.14
2023-09-29T11:27:07.666Z,21.32
2023-09-29T11:30:12.215Z,21.72
2023-09-29T11:33:19.043Z,21.14
2023-09-29T11:36:24.515Z,21.46
2023-09-29T11:39:34.785Z,22.57
2023-09-29T11:42:39.340Z,21.32
2023-09-29T11:45:42.367Z,21.52
2023-09-29T11:48:45.313Z,21.25
2023-09-29T11:51:53.900Z,21.43
2023-09-29T11:54:57.862Z,21.66
2023-09-29T11:58:00.835Z,22.04
2023-09-29T12:01:03.886Z,22.27
2023-09-29T12:04:07.964Z,21.59
2023-09-29T12:07:10.649Z,22.25
2023-09-29T12:10:14.989Z,22.15
2023-09-29T12:13:17.740Z,20.76
2023-09-29T12:16:20.842Z,19.76
2023-09-29T12:19:23.411Z,19.66
2023-09-29T12:22:26.686Z,19.45
2023-09-29T12:25:29.149Z,19.70
2023-09-29T12:28:32.659Z,20.91
2023-09-29T12:31:38.215Z,19.67
2023-09-29T12:34:43.825Z,20.71
2023-09-29T12:37:47.502Z,21.55
2023-09-29T12:40:55.971Z,22.06
2023-09-29T12:43:59.124Z,22.33
2023-09-29T12:47:02.432Z,22.71
2023-09-29T12:50:05.219Z,22.61
2023-09-29T12:53:12.124Z,22.21
2023-09-29T12:56:17.603Z,22.32
2023-09-29T12:59:25.857Z,22.10
2023-09-29T13:02:33.159Z,22.40
2023-09-29T13:05:39.387Z,22.02
2023-09-29T13:08:41.964Z,22.26
2023-09-29T13:11:50.031Z,22.50
2023-09-29T13:14:53.171Z,22.71
2023-09-29T13:17:56.397Z,22.68
2023-09-29T13:20:58.993Z,22.16
2023-09-29T13:24:03.502Z,23.04
2023-09-29T13:27:07.101Z,22.24
2023-09-29T13:30:10.650Z,22.41
2023-09-29T13:33:13.541Z,22.24
2023-09-29T13:36:16.779Z,22.85
2023-09-29T13:39:19.447Z,23.04
2023-09-29T13:42:24.442Z,23.25
2023-09-29T13:45:26.912Z,23.33
2023-09-29T13:48:32.025Z,22.78
2023-09-29T13:51:34.593Z,22.22
2023-09-29T13:54:39.002Z,22.55
2023-09-29T13:57:41.573Z,22.81
2023-09-29T14:00:44.836Z,23.09
2023-09-29T14:03:50.185Z,22.66
2023-09-29T14:06:54.083Z,23.01
2023-09-29T14:09:56.805Z,23.66
2023-09-29T14:13:02.329Z,23.44
2023-09-29T14:16:05.551Z,23.11
2023-09-29T14:19:08.313Z,23.49
2023-09-29T14:22:11.487Z,23.50
2023-09-29T14:25:14.987Z,23.58
2023-09-29T14:28:17.866Z,24.32
2023-09-29T14:31:21.061Z,25.01
2023-09-29T14:34:23.702Z,25.20
2023-09-29T14:37:26.948Z,25.44
2023-09-29T14:40:29.754Z,25.88
2023-09-29T14:43:32.808Z,25.14
2023-09-29T14:46:53.626Z,25.35
2023-09-29T14:50:00.514Z,25.46
2023-09-29T14:53:03.415Z,25.86
2023-09-29T14:56:25.158Z,26.04
2023-09-29T14:59:27.588Z,26.23
2023-09-29T15:02:30.512Z,26.08
2023-09-29T15:05:35.795Z,26.35
2023-09-29T15:08:42.032Z,26.65
2023-09-29T15:11:45.199Z,26.28
2023-09-29T15:14:48.135Z,26.32
2023-09-29T15:17:52.161Z,25.66
2023-09-29T15:20:55.464Z,26.01
2023-09-29T15:23:58.057Z,26.15
2023-09-29T15:27:01.206Z,25.90
2023-09-29T15:30:05.030Z,26.22
2023-09-29T15:33:11.074Z,26.49
2023-09-29T15:36:13.798Z,27.03
2023-09-29T15:39:18.112Z,27.71
2023-09-29T15:42:20.695Z,27.67
2023-09-29T15:45:23.647Z,27.90
2023-09-29T15:48:32.186Z,28.10
2023-09-29T15:51:35.268Z,27.94
2023-09-29T15:54:39.241Z,27.82
2023-09-29T15:57:42.284Z,28.04
2023-09-29T16:00:45.163Z,28.04
2023-09-29T16:03:50.095Z,28.17
2023-09-29T16:06:52.606Z,28.16
2023-09-29T16:09:55.539Z,28.54
2023-09-29T16:12:57.976Z,28.42
2023-09-29T16:16:04.781Z,28.65
2023-09-29T16:19:08.041Z,28.93
2023-09-29T16:22:11.909Z,29.34
2023-09-29T16:25:14.383Z,29.45
2023-09-29T16:28:17.386Z,29.64
2023-09-29T16:31:19.851Z,29.81
2023-09-29T16:34:22.813Z,30.13
2023-09-29T16:37:25.200Z,30.33
2023-09-29T16:40:29.424Z,30.53
2023-09-29T16:43:31.899Z,30.82
2023-09-29T16:46:36.717Z,31.27
2023-09-29T16:49:39.124Z,31.76
2023-09-29T16:52:44.075Z,31.82
2023-09-29T16:55:47.025Z,31.99
2023-09-29T16:58:50.231Z,32.23
2023-09-29T17:01:52.604Z,32.54
2023-09-29T17:04:56.227Z,32.73
2023-09-29T17:07:58.904Z,33.32
2023-09-29T17:11:02.704Z,33.96
2023-09-29T17:14:05.166Z,34.51
2023-09-29T17:17:10.996Z,34.80
2023-09-29T17:20:15.440Z,35.29
2023-09-29T17:23:18.361Z,35.74
2023-09-29T17:26:20.719Z,36.03
2023-09-29T17:29:23.807Z,36.27
2023-09-29T17:32:26.844Z,36.44
2023-09-29T17:35:31.263Z,36.66
2023-09-29T17:38:36.870Z,36.90
2023-09-29T17:41:39.866Z,37.04
2023-09-29T17:44:42.270Z,37.25
2023-09-29T17:47:45.350Z,37.52
2023-09-29T17:50:49.341Z,37.83
2023-09-29T17:53:53.581Z,38.05
2023-09-29T17:56:56.304Z,38.34
2023-09-29T17:59:59.896Z,38.56
2023-09-29T18:03:02.313Z,38.82
2023-09-29T18:06:07.248Z,39.03
2023-09-29T18:09:10.287Z,39.39
2023-09-29T18:12:13.599Z,39.72
2023-09-29T18:15:15.972Z,40.15
2023-09-29T18:18:19.142Z,40.27
2023-09-29T18:21:22.254Z,40.44
2023-09-29T18:24:25.264Z,40.62
2023-09-29T18:27:27.628Z,40.90
2023-09-29T18:30:33.441Z,41.17
2023-09-29T18:33:36.780Z,41.67
2023-09-29T18:36:40.164Z,42.05
2023-09-29T18:39:42.863Z,42.49
2023-09-29T18:42:45.852Z,42.83
2023-09-29T18:45:48.994Z,43.33
2023-09-29T18:48:52.176Z,43.63
2023-09-29T18:51:57.035Z,43.93
2023-09-29T18:55:00.291Z,44.15
2023-09-29T18:58:02.864Z,44.55
2023-09-29T19:01:08.515Z,44.86
2023-09-29T19:04:13.657Z,44.94
2023-09-29T19:07:16.646Z,44.95
2023-09-29T19:10:19.237Z,44.96
2023-09-29T19:13:22.386Z,44.92
2023-09-29T19:16:24.830Z,44.93
2023-09-29T19:19:27.936Z,45.17
2023-09-29T19:22:30.739Z,45.35
2023-09-29T19:25:34.887Z,45.59
2023-09-29T19:28:38.370Z,45.79
2023-09-29T19:31:43.411Z,45.90
2023-09-29T19:34:45.939Z,46.04
2023-09-29T19:37:48.991Z,46.22
2023-09-29T19:40:51.386Z,46.18
2023-09-29T19:43:54.307Z,46.13
2023-09-29T19:46:56.834Z,46.14
2023-09-29T19:49:59.779Z,46.26
2023-09-29T19:53:04.054Z,46.48
2023-09-29T19:56:11.200Z,46.70
2023-09-29T19:59:13.585Z,46.95
2023-09-29T20:02:16.548Z,47.17
2023-09-29T20:05:19.276Z,47.58
2023-09-29T20:08:27.329Z,47.93
2023-09-29T20:11:30.404Z,48.28
2023-09-29T20:14:33.103Z,48.34
2023-09-29T20:17:36.883Z,48.55
2023-09-29T20:20:39.793Z,48.65
2023-09-29T20:23:42.636Z,48.57
2023-09-29T20:26:45.570Z,48.51
2023-09-29T20:29:48.198Z,48.50
2023-09-29T20:32:50.866Z,48.41
2023-09-29T20:35:53.867Z,48.45
2023-09-29T20:38:56.748Z,48.30
2023-09-29T20:42:00.213Z,48.24
2023-09-29T20:45:06.745Z,48.56
2023-09-29T20:48:11.238Z,48.42
2023-09-29T20:51:14.137Z,48.43
2023-09-29T20:54:16.785Z,48.41
2023-09-29T20:57:19.412Z,48.44
2023-09-29T21:00:22.942Z,48.58
2023-09-29T21:03:25.850Z,48.60
2023-09-29T21:06:28.714Z,48.74
2023-09-29T21:09:31.827Z,49.08
2023-09-29T21:12:35.692Z,49.29
2023-09-29T21:15:38.472Z,49.63
2023-09-29T21:18:41.216Z,49.91
2023-09-29T21:21:44.065Z,50.19
2023-09-29T21:24:46.980Z,50.36
2023-09-29T21:27:49.884Z,50.76
2023-09-29T21:30:52.576Z,51.02
2023-09-29T21:33:56.510Z,50.93
2023-09-29T21:36:59.668Z,51.04
2023-09-29T21:40:03.118Z,51.16
2023-09-29T21:43:05.803Z,51.29
2023-09-29T21:46:08.952Z,51.36
2023-09-29T21:49:12.517Z,51.29
2023-09-29T21:52:15.172Z,51.24
2023-09-29T21:55:17.871Z,51.77
2023-09-29T21:58:21.755Z,51.62
2023-09-29T22:01:24.472Z,51.61
2023-09-29T22:04:27.600Z,51.70
2023-09-29T22:07:30.760Z,51.60
2023-09-29T22:10:34.558Z,51.56
2023-09-29T22:13:38.020Z,51.04
2023-09-29T22:16:41.820Z,51.01
2023-09-29T22:19:44.116Z,51.10
2023-09-29T22:22:53.311Z,51.18
2023-09-29T22:25:55.883Z,51.21
2023-09-29T22:28:59.033Z,51.29
2023-09-29T22:32:03.474Z,51.23
2023-09-29T22:35:07.054Z,51.22
2023-09-29T22:38:11.049Z,51.35
2023-09-29T22:41:16.218Z,51.64
2023-09-29T22:44:18.679Z,51.80
2023-09-29T22:47:21.695Z,51.81
2023-09-29T22:50:24.149Z,51.78
2023-09-29T22:53:27.953Z,51.95
2023-09-29T22:56:30.813Z,52.29
2023-09-29T22:59:33.770Z,52.59
2023-09-29T23:02:36.375Z,52.81
2023-09-29T23:05:39.334Z,52.89
2023-09-29T23:08:42.648Z,52.94
2023-09-29T23:11:45.797Z,53.10
2023-09-29T23:14:48.130Z,53.38
2023-09-29T23:17:52.221Z,53.57
2023-09-29T23:20:54.612Z,53.70
2023-09-29T23:23:57.705Z,53.96
2023-09-29T23:27:00.168Z,54.15
2023-09-29T23:30:05.053Z,54.32
2023-09-29T23:33:07.854Z,54.39
2023-09-29T23:36:10.814Z,54.44
2023-09-29T23:39:14.801Z,54.48
2023-09-29T23:42:17.769Z,54.54
2023-09-29T23:45:20.384Z,54.62
2023-09-29T23:48:23.465Z,54.68
2023-09-29T23:51:26.040Z,55.17
2023-09-29T23:54:29.130Z,55.05
2023-09-29T23:57:32.181Z,55.20
